< < Back
Terminal Aerodrome Forecast


Current Version              Previous Versions:   1  2  3  4  5  6  7  8  9  

Terminal Aerodrome Forecast

807
FTUS42 KILM 211700 CCA
TAFILM
TAF COR
KILM 211732Z 2118/2218 18014KT P6SM VCTS SCT040CB BKN060
      TEMPO 2118/2121 3SM TSRA BKN035CB
     FM212300 23003KT P6SM SCT120
     FM220400 VRB04KT P6SM VCSH SCT035 BKN100
     FM221300 29007KT P6SM FEW020=

Latest METAR

365
SAUS70 KWBC 220400 RRG
MTRILM
METAR KILM 220353Z AUTO 00000KT 10SM CLR 25/23 A3004 RMK AO2 SLP170
T02500233


USA.gov is the U.S. government's official web portal to all federal, state and local government web resources and services.